Time;durP1;ratioP1;P1;durP2;ratioP2;P2;SDS_P1;SDS_P2;PMS_P1;PMS_P2;Temp;Humidity;BMP_temperature;BMP_pressure;BME280_temperature;BME280_humidity;BME280_pressure;Samples;Min_cycle;Max_cycle;Signal;HPM_P1;HPM_P2
2023/11/15 00:00:19;;;;;;;0.00;0.00;;;;;;;8.68;100.00;95192.03;1037973;28;20032;-72
2023/11/15 00:00:50;;;;;;;0.20;0.20;;;;;;;8.65;100.00;95205.66;1029772;28;20081;-72
2023/11/15 00:01:20;;;;;;;0.00;0.00;;;;;;;8.63;100.00;95199.13;1030358;28;20026;-72
2023/11/15 00:01:51;;;;;;;0.00;0.00;;;;;;;8.62;100.00;95203.56;1022255;28;20038;-74
2023/11/15 00:02:21;;;;;;;0.00;0.00;;;;;;;8.65;100.00;95191.78;1026710;28;20062;-76
2023/11/15 00:02:52;;;;;;;0.08;0.08;;;;;;;8.65;100.00;95203.03;1030503;28;20034;-72
2023/11/15 00:03:22;;;;;;;0.43;0.20;;;;;;;8.62;100.00;95203.56;1026439;28;20033;-74
2023/11/15 00:03:52;;;;;;;0.00;0.00;;;;;;;8.63;100.00;95188.66;1030653;28;20033;-73
2023/11/15 00:04:23;;;;;;;0.00;0.00;;;;;;;8.63;100.00;95199.91;1038568;28;20029;-74
2023/11/15 00:04:53;;;;;;;0.00;0.00;;;;;;;8.67;100.00;95200.94;1038426;28;20754;-75
2023/11/15 00:05:24;;;;;;;0.00;0.00;;;;;;;8.61;100.00;95201.19;1034672;28;20026;-74
2023/11/15 00:05:55;;;;;;;0.15;0.15;;;;;;;8.67;100.00;95197.53;1030554;28;20041;-73
2023/11/15 00:06:25;;;;;;;0.00;0.00;;;;;;;8.72;100.00;95185.25;1030303;28;20034;-74
2023/11/15 00:06:55;;;;;;;0.00;0.00;;;;;;;8.78;100.00;95201.69;1036638;28;20041;-72
2023/11/15 00:07:26;;;;;;;0.00;0.00;;;;;;;8.76;100.00;95195.19;1039666;28;20032;-74
2023/11/15 00:07:56;;;;;;;0.00;0.00;;;;;;;8.76;100.00;95195.97;1034443;28;20088;-75
2023/11/15 00:08:27;;;;;;;0.00;0.00;;;;;;;8.69;100.00;95198.84;1026210;28;20042;-74
2023/11/15 00:08:57;;;;;;;0.10;0.10;;;;;;;8.70;100.00;95178.72;1026262;28;20030;-73
2023/11/15 00:09:29;;;;;;;0.00;0.00;;;;;;;8.71;100.00;95191.50;1030288;28;20058;-74
2023/11/15 00:09:59;;;;;;;0.25;0.22;;;;;;;8.70;100.00;95192.56;1034874;28;20026;-72
2023/11/15 00:10:31;;;;;;;0.08;0.08;;;;;;;8.69;100.00;95193.63;1038160;28;20930;-76
2023/11/15 00:11:03;;;;;;;0.00;0.00;;;;;;;8.65;100.00;95200.44;1038349;28;20030;-75
2023/11/15 00:11:35;;;;;;;0.00;0.00;;;;;;;8.61;100.00;95199.38;1042583;28;20272;-73
2023/11/15 00:12:06;;;;;;;0.00;0.00;;;;;;;8.63;100.00;95214.81;1039481;28;20282;-73
2023/11/15 00:12:36;;;;;;;0.00;0.00;;;;;;;8.61;100.00;95194.13;1046778;28;20277;-73
2023/11/15 00:13:08;;;;;;;0.00;0.00;;;;;;;8.64;100.00;95201.47;1034474;28;20531;-74
2023/11/15 00:13:38;;;;;;;0.00;0.00;;;;;;;8.61;100.00;95216.88;1033021;28;20042;-74
2023/11/15 00:14:09;;;;;;;0.20;0.20;;;;;;;8.61;100.00;95216.88;1038323;28;20363;-73
2023/11/15 00:14:39;;;;;;;0.00;0.00;;;;;;;8.54;100.00;95214.53;1038414;28;20041;-74
2023/11/15 00:15:10;;;;;;;0.00;0.00;;;;;;;8.56;100.00;95212.47;1038538;28;20029;-75
2023/11/15 00:15:40;;;;;;;0.00;0.00;;;;;;;8.56;100.00;95209.84;1042669;28;20045;-72
2023/11/15 00:16:11;;;;;;;0.00;0.00;;;;;;;8.56;100.00;95217.69;1034324;28;20034;-73
2023/11/15 00:16:41;;;;;;;0.00;0.00;;;;;;;8.54;100.00;95216.38;1030516;28;20030;-74
2023/11/15 00:17:12;;;;;;;0.10;0.10;;;;;;;8.53;100.00;95217.44;1026251;28;20035;-72
2023/11/15 00:17:42;;;;;;;0.00;0.00;;;;;;;8.46;100.00;95217.69;1026517;28;20031;-73
2023/11/15 00:18:13;;;;;;;0.00;0.00;;;;;;;8.51;100.00;95207.22;1030381;28;20030;-73
2023/11/15 00:18:43;;;;;;;0.00;0.00;;;;;;;8.50;100.00;95234.41;1033613;28;20038;-75
2023/11/15 00:19:14;;;;;;;0.00;0.00;;;;;;;8.50;100.00;95219.50;1034663;28;20034;-73
2023/11/15 00:19:45;;;;;;;0.00;0.00;;;;;;;8.48;100.00;95228.66;1037821;28;20061;-74
2023/11/15 00:20:16;;;;;;;0.00;0.00;;;;;;;8.45;100.00;95234.41;1034498;28;20022;-73
2023/11/15 00:20:46;;;;;;;0.00;0.00;;;;;;;8.44;100.00;95230.22;1034382;28;20369;-73
2023/11/15 00:21:18;;;;;;;0.00;0.00;;;;;;;8.43;100.00;95231.28;1037979;28;20072;-73
2023/11/15 00:21:49;;;;;;;0.10;0.10;;;;;;;8.39;100.00;95238.09;1030736;28;20480;-73
2023/11/15 00:22:22;;;;;;;0.00;0.00;;;;;;;8.35;100.00;95258.69;1026774;28;20246;-74
2023/11/15 00:22:53;;;;;;;0.00;0.00;;;;;;;8.36;100.00;95236.75;1026386;28;20256;-74
2023/11/15 00:23:23;;;;;;;0.00;0.00;;;;;;;8.38;100.00;95233.88;1027036;28;20259;-75
2023/11/15 00:23:54;;;;;;;0.00;0.00;;;;;;;8.35;100.00;95261.31;1031506;28;20022;-73
2023/11/15 00:24:24;;;;;;;0.22;0.22;;;;;;;8.33;100.00;95246.94;1032295;28;20081;-73
2023/11/15 00:24:55;;;;;;;0.00;0.00;;;;;;;8.27;100.00;95244.28;1035034;28;20539;-71
2023/11/15 00:25:25;;;;;;;0.00;0.00;;;;;;;8.27;100.00;95244.28;1031794;28;20023;-73
2023/11/15 00:25:56;;;;;;;0.00;0.00;;;;;;;8.26;100.00;95250.56;1035226;28;20433;-72
2023/11/15 00:26:26;;;;;;;0.00;0.00;;;;;;;8.23;100.00;95245.88;1031306;28;20026;-73
2023/11/15 00:26:57;;;;;;;0.00;0.00;;;;;;;8.21;100.00;95247.94;1035039;28;20037;-73
2023/11/15 00:27:28;;;;;;;0.05;0.05;;;;;;;8.26;100.00;95242.72;1031224;28;20022;-73
2023/11/15 00:27:58;;;;;;;0.00;0.00;;;;;;;8.27;100.00;95259.19;1035395;28;20957;-74
2023/11/15 00:28:28;;;;;;;0.00;0.00;;;;;;;8.26;100.00;95265.47;1040678;28;20025;-72
2023/11/15 00:28:59;;;;;;;1.65;0.47;;;;;;;8.09;100.00;95229.13;1031215;28;20030;-74
2023/11/15 00:29:29;;;;;;;0.00;0.00;;;;;;;8.20;100.00;95254.22;1029623;28;20018;-75
2023/11/15 00:30:00;;;;;;;0.00;0.00;;;;;;;8.25;100.00;95262.09;1026806;28;20064;-74
2023/11/15 00:30:31;;;;;;;0.45;0.45;;;;;;;8.22;100.00;95259.97;1029327;28;20027;-72
2023/11/15 00:31:02;;;;;;;0.03;0.03;;;;;;;8.24;100.00;95260.50;1030398;28;20030;-74
2023/11/15 00:31:33;;;;;;;0.00;0.00;;;;;;;8.23;100.00;95272.00;1037315;28;20763;-73
2023/11/15 00:32:04;;;;;;;0.00;0.00;;;;;;;8.22;100.00;95251.38;1043473;28;20044;-73
2023/11/15 00:32:35;;;;;;;0.00;0.00;;;;;;;8.18;100.00;95256.31;1036475;28;20374;-73
2023/11/15 00:33:05;;;;;;;0.00;0.00;;;;;;;8.25;100.00;95271.75;1031026;28;20022;-73
2023/11/15 00:33:36;;;;;;;0.00;0.00;;;;;;;8.23;100.00;95258.94;1027236;28;20027;-73
2023/11/15 00:34:06;;;;;;;0.00;0.00;;;;;;;8.26;100.00;95274.09;1031722;28;20394;-73
2023/11/15 00:34:36;;;;;;;0.10;0.10;;;;;;;8.25;100.00;95271.75;1033193;28;20026;-74
2023/11/15 00:35:08;;;;;;;0.00;0.00;;;;;;;8.25;100.00;95261.31;1027011;28;20027;-73
2023/11/15 00:35:39;;;;;;;0.00;0.00;;;;;;;8.26;100.00;95268.09;1026886;28;20528;-73
2023/11/15 00:36:11;;;;;;;0.00;0.00;;;;;;;8.20;100.00;95269.91;1027433;28;20270;-74
2023/11/15 00:36:45;;;;;;;0.00;0.00;;;;;;;8.16;100.00;95258.41;1035081;28;20477;-72
2023/11/15 00:37:15;;;;;;;0.00;0.00;;;;;;;8.15;100.00;95256.84;1032041;28;20272;-73
2023/11/15 00:37:46;;;;;;;0.00;0.00;;;;;;;8.21;100.00;95268.84;1033657;28;20328;-73
2023/11/15 00:38:16;;;;;;;0.00;0.00;;;;;;;8.21;100.00;95278.53;1027897;28;20441;-74
2023/11/15 00:38:47;;;;;;;0.00;0.00;;;;;;;8.19;100.00;95278.78;1032058;28;20030;-75
2023/11/15 00:39:17;;;;;;;0.00;0.00;;;;;;;8.19;100.00;95267.56;1030132;28;20398;-72
2023/11/15 00:39:48;;;;;;;0.00;0.00;;;;;;;8.18;100.00;95282.47;1034185;28;20034;-72
2023/11/15 00:40:20;;;;;;;0.00;0.00;;;;;;;8.11;100.00;95276.66;1035215;28;20021;-73
2023/11/15 00:40:50;;;;;;;0.10;0.10;;;;;;;8.18;100.00;95286.88;1022638;28;20059;-73
2023/11/15 00:41:21;;;;;;;0.00;0.00;;;;;;;8.12;100.00;95282.69;1031540;28;20341;-75
2023/11/15 00:41:51;;;;;;;0.00;0.00;;;;;;;8.12;100.00;95275.66;1027058;28;20536;-74
2023/11/15 00:42:22;;;;;;;0.00;0.00;;;;;;;8.14;100.00;95281.38;1031372;28;20026;-73
2023/11/15 00:42:54;;;;;;;0.35;0.35;;;;;;;8.15;100.00;95293.44;1031106;28;20077;-73
2023/11/15 00:43:24;;;;;;;0.00;0.00;;;;;;;8.12;100.00;95299.16;1027078;28;20796;-74
2023/11/15 00:43:55;;;;;;;0.43;0.15;;;;;;;8.12;100.00;95295.78;1031091;28;20261;-74
2023/11/15 00:44:25;;;;;;;0.00;0.00;;;;;;;8.12;100.00;95298.38;1031144;28;20022;-73
2023/11/15 00:44:56;;;;;;;0.00;0.00;;;;;;;8.04;100.00;95297.03;1030917;28;20033;-74
2023/11/15 00:45:26;;;;;;;0.00;0.00;;;;;;;8.09;100.00;95304.91;1027034;28;20030;-72
2023/11/15 00:45:57;;;;;;;0.00;0.00;;;;;;;8.03;100.00;95300.69;1028518;28;20478;-73
2023/11/15 00:46:27;;;;;;;0.00;0.00;;;;;;;8.03;100.00;95293.63;1027085;28;20049;-74
2023/11/15 00:46:58;;;;;;;0.00;0.00;;;;;;;8.10;100.00;95295.22;1027179;28;20034;-74
2023/11/15 00:47:28;;;;;;;0.00;0.00;;;;;;;7.95;100.00;95288.94;1027123;28;20033;-72
2023/11/15 00:47:59;;;;;;;9.90;0.47;;;;;;;8.08;100.00;95308.56;1035080;28;20129;-73
2023/11/15 00:48:29;;;;;;;0.00;0.00;;;;;;;8.04;100.00;95312.72;1031218;28;20030;-74
2023/11/15 00:49:00;;;;;;;0.00;0.00;;;;;;;8.04;100.00;95303.03;1035258;28;20162;-74
2023/11/15 00:49:34;;;;;;;0.00;0.00;;;;;;;8.11;100.00;95317.69;1028637;28;20035;-74
2023/11/15 00:50:05;;;;;;;0.00;0.00;;;;;;;8.14;100.00;95307.50;1030770;28;20042;-74
2023/11/15 00:50:36;;;;;;;0.32;0.30;;;;;;;8.11;100.00;95313.25;1025485;28;20271;-73
2023/11/15 00:51:07;;;;;;;0.00;0.00;;;;;;;8.10;100.00;95321.34;1026259;28;20270;-74
2023/11/15 00:51:38;;;;;;;0.00;0.00;;;;;;;8.10;100.00;95322.13;1027448;28;20034;-74
2023/11/15 00:52:09;;;;;;;0.00;0.00;;;;;;;8.05;100.00;95303.84;1027184;28;20418;-74
2023/11/15 00:52:39;;;;;;;0.10;0.10;;;;;;;8.02;100.00;95304.38;1031178;28;20089;-73
2023/11/15 00:53:10;;;;;;;0.00;0.00;;;;;;;8.08;100.00;95316.41;1035331;28;20030;-73
2023/11/15 00:53:40;;;;;;;0.00;0.00;;;;;;;8.05;100.00;95319.53;1035129;28;20567;-74
2023/11/15 00:54:11;;;;;;;0.00;0.00;;;;;;;8.05;100.00;95324.75;1039057;28;20080;-72
2023/11/15 00:54:42;;;;;;;0.00;0.00;;;;;;;8.05;100.00;95322.13;1032229;28;20505;-72
2023/11/15 00:55:12;;;;;;;2.30;1.08;;;;;;;8.04;100.00;95323.16;1035091;28;20273;-74
2023/11/15 00:55:43;;;;;;;0.10;0.10;;;;;;;8.03;100.00;95332.06;1026972;28;20037;-74
2023/11/15 00:56:13;;;;;;;0.00;0.00;;;;;;;8.04;100.00;95325.78;1026892;28;20034;-75
2023/11/15 00:56:44;;;;;;;0.20;0.20;;;;;;;8.06;100.00;95315.09;1027006;28;20115;-73
2023/11/15 00:57:14;;;;;;;0.00;0.00;;;;;;;8.05;100.00;95319.53;1027262;28;20038;-73
2023/11/15 00:57:45;;;;;;;0.10;0.10;;;;;;;8.13;100.00;95313.78;1030064;28;20038;-75
2023/11/15 00:58:17;;;;;;;0.20;0.20;;;;;;;8.07;100.00;95312.19;1026798;28;20045;-74
2023/11/15 00:58:48;;;;;;;0.00;0.00;;;;;;;8.09;100.00;95325.81;1022991;29;20048;-72
2023/11/15 00:59:22;;;;;;;0.00;0.00;;;;;;;8.09;100.00;95310.13;1026903;28;20346;-73
2023/11/15 00:59:55;;;;;;;0.00;0.00;;;;;;;8.14;100.00;95328.41;1026920;28;20105;-74
2023/11/15 01:00:27;;;;;;;0.00;0.00;;;;;;;8.07;100.00;95312.19;1026879;28;20281;-72
2023/11/15 01:00:59;;;;;;;0.00;0.00;;;;;;;8.13;100.00;95313.00;1034272;28;20272;-74
2023/11/15 01:01:30;;;;;;;0.00;0.00;;;;;;;8.06;100.00;95308.03;1035753;28;20276;-74
2023/11/15 01:02:00;;;;;;;0.00;0.00;;;;;;;8.12;100.00;95319.28;1026793;28;20270;-74
2023/11/15 01:02:35;;;;;;;0.00;0.00;;;;;;;8.12;100.00;95327.91;1023524;28;20096;-73
2023/11/15 01:03:06;;;;;;;0.30;0.30;;;;;;;8.08;100.00;95332.09;1027903;28;20090;-74
2023/11/15 01:03:40;;;;;;;0.00;0.00;;;;;;;8.09;100.00;95325.81;1032206;28;20335;-74
2023/11/15 01:04:11;;;;;;;0.00;0.00;;;;;;;8.04;100.00;95323.94;1030973;28;20022;-74
2023/11/15 01:04:42;;;;;;;0.10;0.10;;;;;;;8.10;100.00;95316.91;1026715;28;20769;-73
2023/11/15 01:05:13;;;;;;;0.00;0.00;;;;;;;8.05;100.00;95314.31;1018876;29;20312;-74
2023/11/15 01:05:43;;;;;;;0.00;0.00;;;;;;;8.10;100.00;95332.59;1030783;28;20042;-73
2023/11/15 01:06:14;;;;;;;0.00;0.00;;;;;;;8.10;100.00;95335.22;1027013;28;20026;-73
2023/11/15 01:06:44;;;;;;;0.00;0.00;;;;;;;8.11;100.00;95336.78;1030696;28;20599;-74
2023/11/15 01:07:15;;;;;;;0.00;0.00;;;;;;;8.12;100.00;95348.03;1027000;28;20610;-75
2023/11/15 01:07:45;;;;;;;0.00;0.00;;;;;;;8.11;100.00;95339.38;1034575;28;20033;-73
2023/11/15 01:08:16;;;;;;;0.00;0.00;;;;;;;8.13;100.00;95332.09;1035103;28;20033;-73
2023/11/15 01:08:46;;;;;;;0.00;0.00;;;;;;;8.11;100.00;95342.00;1037568;28;20040;-74
2023/11/15 01:09:16;;;;;;;0.10;0.10;;;;;;;8.11;100.00;95328.94;1043266;28;20024;-73
2023/11/15 01:09:47;;;;;;;0.00;0.00;;;;;;;8.07;100.00;95322.66;1038803;28;20029;-73
2023/11/15 01:10:18;;;;;;;0.00;0.00;;;;;;;8.09;100.00;95341.47;1043053;28;20025;-74
2023/11/15 01:10:51;;;;;;;0.40;0.40;;;;;;;8.12;100.00;95338.38;1034038;28;20021;-70
2023/11/15 01:11:23;;;;;;;0.00;0.00;;;;;;;8.11;100.00;95330.75;1035192;28;20025;-75
2023/11/15 01:11:53;;;;;;;0.00;0.00;;;;;;;8.03;100.00;95317.16;1026743;28;20269;-73
2023/11/15 01:12:24;;;;;;;0.00;0.00;;;;;;;7.96;100.00;95329.69;1032260;28;20269;-76
2023/11/15 01:12:55;;;;;;;0.00;0.00;;;;;;;8.13;100.00;95326.84;1035336;28;20034;-73
2023/11/15 01:13:26;;;;;;;0.65;0.10;;;;;;;8.18;100.00;95334.72;1039650;28;20359;-74
2023/11/15 01:13:56;;;;;;;0.00;0.00;;;;;;;8.10;100.00;95326.59;1038782;28;20022;-72
2023/11/15 01:14:27;;;;;;;0.00;0.00;;;;;;;8.11;100.00;95336.78;1031052;28;20265;-74
2023/11/15 01:14:57;;;;;;;0.00;0.00;;;;;;;8.13;100.00;95321.63;1030828;28;20022;-74
2023/11/15 01:15:28;;;;;;;0.00;0.00;;;;;;;8.13;100.00;95353.00;1030721;28;20031;-74
2023/11/15 01:15:59;;;;;;;0.32;0.32;;;;;;;8.15;100.00;95334.44;1034910;28;20061;-73
2023/11/15 01:16:29;;;;;;;0.75;0.57;;;;;;;8.15;100.00;95339.66;1032471;28;20033;-72
2023/11/15 01:17:00;;;;;;;0.00;0.00;;;;;;;8.15;100.00;95330.00;1034827;28;20508;-72
2023/11/15 01:17:34;;;;;;;0.00;0.00;;;;;;;8.16;100.00;95347.25;1039081;28;20176;-73
2023/11/15 01:18:07;;;;;;;0.00;0.00;;;;;;;8.19;100.00;95333.69;1030934;28;20030;-73
2023/11/15 01:18:39;;;;;;;0.00;0.00;;;;;;;8.11;100.00;95323.69;1030367;28;20274;-72
2023/11/15 01:19:10;;;;;;;0.00;0.00;;;;;;;8.16;100.00;95336.03;1030776;28;20269;-73
2023/11/15 01:19:40;;;;;;;0.00;0.00;;;;;;;8.19;100.00;95341.53;1034973;28;20276;-73
2023/11/15 01:20:12;;;;;;;0.00;0.00;;;;;;;8.20;100.00;95342.28;1031031;28;20101;-74
2023/11/15 01:20:43;;;;;;;0.00;0.00;;;;;;;8.19;100.00;95346.75;1034500;28;20029;-74
2023/11/15 01:21:13;;;;;;;0.00;0.00;;;;;;;8.20;100.00;95337.06;1038571;28;20267;-75
2023/11/15 01:21:44;;;;;;;0.00;0.00;;;;;;;8.18;100.00;95352.22;1043368;28;20025;-73
2023/11/15 01:22:14;;;;;;;0.00;0.00;;;;;;;8.19;100.00;95340.75;1040717;28;20025;-74
2023/11/15 01:22:45;;;;;;;0.00;0.00;;;;;;;8.13;100.00;95345.16;1034777;28;20033;-74
2023/11/15 01:23:16;;;;;;;0.00;0.00;;;;;;;8.16;100.00;95347.25;1034851;28;20048;-74
2023/11/15 01:23:46;;;;;;;0.00;0.00;;;;;;;8.22;100.00;95346.22;1030767;28;20030;-74
2023/11/15 01:24:17;;;;;;;0.00;0.00;;;;;;;8.21;100.00;95355.09;1030726;28;20014;-74
2023/11/15 01:24:47;;;;;;;0.00;0.00;;;;;;;8.23;100.00;95349.63;1031011;28;20031;-73
2023/11/15 01:25:20;;;;;;;0.00;0.00;;;;;;;8.21;100.00;95343.84;1026921;28;20150;-75
2023/11/15 01:25:50;;;;;;;0.10;0.10;;;;;;;8.21;100.00;95347.25;1034879;28;20120;-73
2023/11/15 01:26:21;;;;;;;0.00;0.00;;;;;;;8.18;100.00;95350.41;1034898;28;20265;-73
2023/11/15 01:26:52;;;;;;;0.22;0.22;;;;;;;8.20;100.00;95348.31;1037180;28;20112;-73
2023/11/15 01:27:23;;;;;;;0.00;0.00;;;;;;;8.20;100.00;95342.28;1034779;28;20084;-72
2023/11/15 01:27:53;;;;;;;0.03;0.03;;;;;;;8.18;100.00;95350.41;1039071;28;20348;-74
2023/11/15 01:28:23;;;;;;;0.20;0.20;;;;;;;8.20;100.00;95348.31;1031769;28;20030;-72
2023/11/15 01:28:57;;;;;;;0.00;0.00;;;;;;;8.18;100.00;95350.41;1030850;28;20532;-72
2023/11/15 01:29:28;;;;;;;0.30;0.30;;;;;;;8.16;100.00;95352.47;1030665;28;20552;-73
2023/11/15 01:29:58;;;;;;;0.00;0.00;;;;;;;8.12;100.00;95346.19;1034899;28;20261;-73
2023/11/15 01:30:29;;;;;;;0.00;0.00;;;;;;;8.13;100.00;95354.81;1034986;28;20583;-73
2023/11/15 01:30:59;;;;;;;0.00;0.00;;;;;;;8.09;100.00;95354.56;1022880;28;20031;-73
2023/11/15 01:31:30;;;;;;;0.00;0.00;;;;;;;8.07;100.00;95364.47;1026775;28;20027;-74
2023/11/15 01:32:00;;;;;;;0.25;0.25;;;;;;;8.05;100.00;95356.09;1026837;28;20044;-73
2023/11/15 01:32:30;;;;;;;0.00;0.00;;;;;;;8.04;100.00;95375.41;1029770;28;20085;-72
2023/11/15 01:33:01;;;;;;;0.00;0.00;;;;;;;8.07;100.00;95359.22;1043171;28;20036;-73
2023/11/15 01:33:31;;;;;;;0.03;0.03;;;;;;;8.08;100.00;95370.47;1038538;28;20048;-74
2023/11/15 01:34:02;;;;;;;0.00;0.00;;;;;;;8.05;100.00;95361.34;1035981;28;20068;-73
2023/11/15 01:34:32;;;;;;;0.00;0.00;;;;;;;8.11;100.00;95370.75;1038921;28;20017;-73
2023/11/15 01:35:05;;;;;;;0.10;0.10;;;;;;;8.06;100.00;95362.91;1038981;28;20087;-72
2023/11/15 01:35:35;;;;;;;0.00;0.00;;;;;;;8.02;100.00;95356.63;1031053;28;20031;-74
2023/11/15 01:36:06;;;;;;;0.00;0.00;;;;;;;8.09;100.00;95377.28;1034706;28;20260;-73
2023/11/15 01:36:37;;;;;;;0.00;0.00;;;;;;;8.05;100.00;95379.63;1034817;28;20405;-74
2023/11/15 01:37:07;;;;;;;0.00;0.00;;;;;;;8.08;100.00;95384.34;1027130;28;20702;-74
2023/11/15 01:37:38;;;;;;;0.00;0.00;;;;;;;8.08;100.00;95366.06;1031554;28;20026;-75
2023/11/15 01:38:08;;;;;;;0.00;0.00;;;;;;;8.11;100.00;95368.13;1038993;28;20021;-74
2023/11/15 01:38:40;;;;;;;0.00;0.00;;;;;;;8.10;100.00;95379.63;1032444;28;20022;-73
2023/11/15 01:39:15;;;;;;;0.00;0.00;;;;;;;8.03;100.00;95358.97;1042306;28;20040;-74
2023/11/15 01:39:47;;;;;;;0.00;0.00;;;;;;;8.07;100.00;95380.13;1039312;28;20746;-75
2023/11/15 01:40:20;;;;;;;0.00;0.00;;;;;;;8.05;100.00;95369.16;1038971;28;20275;-73
2023/11/15 01:40:51;;;;;;;0.00;0.00;;;;;;;8.09;100.00;95378.06;1032940;28;20304;-74
2023/11/15 01:41:21;;;;;;;0.00;0.00;;;;;;;8.12;100.00;95382.78;1034797;28;20280;-72
2023/11/15 01:41:52;;;;;;;1.23;0.52;;;;;;;8.11;100.00;95383.81;1030708;28;20026;-73
2023/11/15 01:42:23;;;;;;;0.00;0.00;;;;;;;8.14;100.00;95383.31;1030813;28;20038;-72
2023/11/15 01:42:53;;;;;;;0.00;0.00;;;;;;;8.15;100.00;95390.13;1035246;28;20392;-74
2023/11/15 01:43:24;;;;;;;0.00;0.00;;;;;;;8.17;100.00;95385.41;1039327;28;20455;-74
2023/11/15 01:43:54;;;;;;;0.00;0.00;;;;;;;8.18;100.00;95394.84;1047276;28;20020;-72
2023/11/15 01:44:25;;;;;;;0.00;0.00;;;;;;;8.19;100.00;95382.56;1042795;28;20021;-73
2023/11/15 01:44:55;;;;;;;0.00;0.00;;;;;;;8.20;100.00;95386.72;1037978;28;20063;-74
2023/11/15 01:45:27;;;;;;;0.00;0.00;;;;;;;8.15;100.00;95389.31;1038898;28;20033;-74
2023/11/15 01:45:57;;;;;;;0.00;0.00;;;;;;;8.20;100.00;95384.91;1030806;28;20033;-75
2023/11/15 01:46:28;;;;;;;0.00;0.00;;;;;;;8.21;100.00;95391.69;1030928;28;20636;-74
2023/11/15 01:46:58;;;;;;;0.65;0.30;;;;;;;8.16;100.00;95383.84;1034898;28;20028;-72
2023/11/15 01:47:29;;;;;;;0.05;0.05;;;;;;;8.20;100.00;95387.50;1030603;28;20130;-71
2023/11/15 01:48:00;;;;;;;0.00;0.00;;;;;;;8.21;100.00;95383.84;1030820;28;20030;-74
2023/11/15 01:48:30;;;;;;;0.10;0.10;;;;;;;8.26;100.00;95393.56;1030667;28;20638;-76
2023/11/15 01:49:01;;;;;;;0.00;0.00;;;;;;;8.18;100.00;95387.00;1026999;28;20027;-74
2023/11/15 01:49:32;;;;;;;0.10;0.10;;;;;;;8.24;100.00;95400.84;1032421;28;20833;-74
2023/11/15 01:50:05;;;;;;;0.00;0.00;;;;;;;8.19;100.00;95391.16;1038707;28;20040;-73
2023/11/15 01:50:36;;;;;;;0.00;0.00;;;;;;;8.21;100.00;95398.75;1038762;28;20017;-74
2023/11/15 01:51:07;;;;;;;0.00;0.00;;;;;;;8.22;100.00;95408.97;1034654;28;20930;-73
2023/11/15 01:51:38;;;;;;;0.10;0.10;;;;;;;8.20;100.00;95400.56;1034610;28;20034;-73
2023/11/15 01:52:09;;;;;;;0.00;0.00;;;;;;;8.19;100.00;95398.22;1034687;28;20257;-70
2023/11/15 01:52:41;;;;;;;0.47;0.30;;;;;;;8.22;100.00;95403.72;1030607;28;20042;-73
2023/11/15 01:53:12;;;;;;;0.00;0.00;;;;;;;8.22;100.00;95408.97;1022952;28;20266;-72
2023/11/15 01:53:42;;;;;;;0.00;0.00;;;;;;;8.20;100.00;95405.81;1026588;28;20289;-73
2023/11/15 01:54:13;;;;;;;0.00;0.00;;;;;;;8.22;100.00;95403.72;1027297;28;20270;-74
2023/11/15 01:54:44;;;;;;;0.00;0.00;;;;;;;8.19;100.00;95391.16;1026656;28;20034;-75
2023/11/15 01:55:18;;;;;;;0.00;0.00;;;;;;;8.24;100.00;95408.69;1030927;28;20022;-74
2023/11/15 01:55:48;;;;;;;0.00;0.00;;;;;;;8.24;100.00;95409.47;1026712;28;20277;-73
2023/11/15 01:56:19;;;;;;;0.20;0.20;;;;;;;8.22;100.00;95416.81;1037608;28;20276;-74
2023/11/15 01:56:49;;;;;;;0.00;0.00;;;;;;;8.28;100.00;95412.34;1030639;28;20033;-73
2023/11/15 01:57:20;;;;;;;0.00;0.00;;;;;;;8.27;100.00;95411.56;1031162;28;20046;-74
2023/11/15 01:57:50;;;;;;;0.00;0.00;;;;;;;8.24;100.00;95395.63;1030517;28;20084;-72
2023/11/15 01:58:25;;;;;;;0.00;0.00;;;;;;;8.27;100.00;95408.97;1022573;29;20486;-73
2023/11/15 01:58:56;;;;;;;0.00;0.00;;;;;;;8.29;100.00;95411.34;1030720;28;20748;-74
2023/11/15 01:59:28;;;;;;;0.00;0.00;;;;;;;8.25;100.00;95408.44;1030635;28;20266;-73
2023/11/15 01:59:59;;;;;;;0.00;0.00;;;;;;;8.24;100.00;95417.31;1027432;28;20273;-73
2023/11/15 02:00:29;;;;;;;0.00;0.00;;;;;;;8.22;100.00;95419.41;1026818;28;20270;-74
2023/11/15 02:01:00;;;;;;;0.00;0.00;;;;;;;8.23;100.00;95418.38;1025826;28;20852;-75
2023/11/15 02:01:31;;;;;;;4.07;0.57;;;;;;;8.22;100.00;95413.41;1027351;28;20019;-74
2023/11/15 02:02:01;;;;;;;0.00;0.00;;;;;;;8.23;100.00;95414.97;1030605;28;20093;-75
2023/11/15 02:02:32;;;;;;;0.00;0.00;;;;;;;8.25;100.00;95415.50;1027070;28;20360;-74
2023/11/15 02:03:02;;;;;;;0.00;0.00;;;;;;;8.16;100.00;95407.34;1034991;28;20036;-73
2023/11/15 02:03:33;;;;;;;0.00;0.00;;;;;;;8.16;100.00;95401.34;1030719;28;20108;-74
2023/11/15 02:04:04;;;;;;;0.00;0.00;;;;;;;8.20;100.00;95426.72;1030718;28;20454;-75
2023/11/15 02:04:35;;;;;;;0.05;0.05;;;;;;;8.20;100.00;95425.94;1026846;28;20478;-72
2023/11/15 02:05:06;;;;;;;0.00;0.00;;;;;;;8.14;100.00;95412.03;1026907;28;20266;-75
2023/11/15 02:05:37;;;;;;;0.00;0.00;;;;;;;8.17;100.00;95426.44;1026837;28;20437;-72
2023/11/15 02:06:08;;;;;;;0.00;0.00;;;;;;;8.18;100.00;95428.00;1027231;28;20051;-73
2023/11/15 02:06:38;;;;;;;0.00;0.00;;;;;;;8.16;100.00;95425.66;1030808;28;20769;-73
2023/11/15 02:07:09;;;;;;;0.00;0.00;;;;;;;8.10;100.00;95418.03;1038589;28;20025;-74
2023/11/15 02:07:39;;;;;;;0.03;0.03;;;;;;;8.08;100.00;95412.28;1037672;28;20019;-74
2023/11/15 02:08:10;;;;;;;0.00;0.00;;;;;;;8.12;100.00;95419.38;1030939;28;20015;-74
2023/11/15 02:08:41;;;;;;;0.00;0.00;;;;;;;8.08;100.00;95426.16;1034665;28;20022;-74
2023/11/15 02:09:11;;;;;;;0.70;0.52;;;;;;;8.14;100.00;95422.50;1030922;28;20026;-73
2023/11/15 02:09:42;;;;;;;0.20;0.13;;;;;;;8.12;100.00;95429.81;1030867;28;20481;-73
2023/11/15 02:10:13;;;;;;;0.00;0.00;;;;;;;8.10;100.00;95424.06;1030559;28;20347;-74
2023/11/15 02:10:44;;;;;;;0.10;0.10;;;;;;;8.02;100.00;95414.09;1030331;28;20066;-72
2023/11/15 02:11:14;;;;;;;0.17;0.17;;;;;;;8.06;100.00;95428.22;1028007;28;20266;-72
2023/11/15 02:11:44;;;;;;;0.00;0.00;;;;;;;8.01;100.00;95430.78;1031211;28;20655;-74
2023/11/15 02:12:15;;;;;;;0.85;0.40;;;;;;;8.03;100.00;95431.34;1038455;28;20028;-72
2023/11/15 02:12:46;;;;;;;0.00;0.00;;;;;;;7.96;100.00;95428.16;1030817;28;20038;-75
2023/11/15 02:13:26;;;;;;;0.43;0.43;;;;;;;7.98;100.00;95428.69;1026596;28;20836;-73
2023/11/15 02:13:58;;;;;;;0.00;0.00;;;;;;;7.98;100.00;95442.56;1027963;28;20023;-74
2023/11/15 02:14:30;;;;;;;0.00;0.00;;;;;;;7.92;100.00;95434.94;1033906;28;20117;-71
2023/11/15 02:15:01;;;;;;;0.00;0.00;;;;;;;7.94;100.00;95436.25;1034272;28;20618;-73
2023/11/15 02:15:31;;;;;;;0.00;0.00;;;;;;;7.89;100.00;95435.44;1035102;28;20292;-72
2023/11/15 02:16:02;;;;;;;0.00;0.00;;;;;;;7.91;100.00;95435.97;1034814;28;20057;-73
2023/11/15 02:16:33;;;;;;;0.00;0.00;;;;;;;7.97;100.00;95443.56;1035036;28;20044;-73
2023/11/15 02:17:05;;;;;;;0.00;0.00;;;;;;;7.98;100.00;95439.13;1034737;28;20303;-73
2023/11/15 02:17:35;;;;;;;0.00;0.00;;;;;;;7.95;100.00;95443.06;1034625;28;20037;-74
2023/11/15 02:18:06;;;;;;;0.00;0.00;;;;;;;7.99;100.00;95435.50;1026959;28;20298;-72
2023/11/15 02:18:36;;;;;;;0.00;0.00;;;;;;;8.03;100.00;95449.63;1030591;28;20030;-74
2023/11/15 02:19:07;;;;;;;0.00;0.00;;;;;;;8.04;100.00;95451.97;1030657;28;20470;-73
2023/11/15 02:19:38;;;;;;;0.00;0.00;;;;;;;8.00;100.00;95447.50;1030961;28;20844;-74
2023/11/15 02:20:09;;;;;;;0.00;0.00;;;;;;;7.98;100.00;95446.97;1030855;28;20302;-73
2023/11/15 02:20:40;;;;;;;0.00;0.00;;;;;;;7.98;100.00;95454.81;1034958;28;20485;-75
2023/11/15 02:21:10;;;;;;;0.03;0.03;;;;;;;8.01;100.00;95456.91;1029944;28;20286;-74
2023/11/15 02:21:41;;;;;;;0.00;0.00;;;;;;;8.01;100.00;95455.13;1034556;28;20656;-74
2023/11/15 02:22:11;;;;;;;0.00;0.00;;;;;;;8.06;100.00;95456.97;1030664;28;20041;-74
2023/11/15 02:22:48;;;;;;;0.10;0.10;;;;;;;8.05;100.00;95450.16;1030173;28;20034;-70
2023/11/15 02:23:22;;;;;;;0.00;0.00;;;;;;;8.03;100.00;95460.06;1033603;28;20028;-75
2023/11/15 02:23:53;;;;;;;0.00;0.00;;;;;;;8.13;100.00;95465.34;1030871;28;20277;-72
2023/11/15 02:24:24;;;;;;;0.10;0.10;;;;;;;8.11;100.00;95454.38;1035019;28;20263;-72
2023/11/15 02:24:54;;;;;;;0.32;0.10;;;;;;;8.03;100.00;95447.00;1031229;28;20261;-73
2023/11/15 02:25:25;;;;;;;0.00;0.00;;;;;;;8.10;100.00;95465.88;1035093;28;20029;-73
2023/11/15 02:25:55;;;;;;;0.00;0.00;;;;;;;8.10;100.00;95476.31;1030880;28;20030;-73